sensor_id;sensor_type;location;lat;lon;timestamp;P1;durP1;ratioP1;P2;durP2;ratioP2
14890;SDS011;7537;48.014;11.590;2023-01-20T00:00:53;6.22;;;4.42;;
14890;SDS011;7537;48.014;11.590;2023-01-20T00:06:20;3.99;;;4.08;;
14890;SDS011;7537;48.014;11.590;2023-01-20T00:11:48;5.39;;;4.16;;
14890;SDS011;7537;48.014;11.590;2023-01-20T00:17:15;3.74;;;3.51;;
14890;SDS011;7537;48.014;11.590;2023-01-20T00:22:43;6.29;;;4.64;;
14890;SDS011;7537;48.014;11.590;2023-01-20T00:28:11;4.26;;;4.04;;
14890;SDS011;7537;48.014;11.590;2023-01-20T00:33:42;6.83;;;4.41;;
14890;SDS011;7537;48.014;11.590;2023-01-20T00:39:10;4.44;;;3.79;;
14890;SDS011;7537;48.014;11.590;2023-01-20T00:44:37;4.90;;;3.55;;
14890;SDS011;7537;48.014;11.590;2023-01-20T00:50:05;5.21;;;4.42;;
14890;SDS011;7537;48.014;11.590;2023-01-20T00:55:33;5.13;;;4.19;;
14890;SDS011;7537;48.014;11.590;2023-01-20T01:01:00;6.89;;;4.52;;
14890;SDS011;7537;48.014;11.590;2023-01-20T01:06:27;5.01;;;4.26;;
14890;SDS011;7537;48.014;11.590;2023-01-20T01:11:55;4.79;;;3.55;;
14890;SDS011;7537;48.014;11.590;2023-01-20T01:17:23;6.39;;;4.59;;
14890;SDS011;7537;48.014;11.590;2023-01-20T01:22:50;9.43;;;3.92;;
14890;SDS011;7537;48.014;11.590;2023-01-20T01:28:17;4.59;;;3.30;;
14890;SDS011;7537;48.014;11.590;2023-01-20T01:33:48;3.17;;;3.17;;
14890;SDS011;7537;48.014;11.590;2023-01-20T01:39:15;4.35;;;3.62;;
14890;SDS011;7537;48.014;11.590;2023-01-20T01:50:31;3.88;;;3.01;;
14890;SDS011;7537;48.014;11.590;2023-01-20T01:56:00;3.48;;;3.46;;
14890;SDS011;7537;48.014;11.590;2023-01-20T02:01:28;4.91;;;3.82;;
14890;SDS011;7537;48.014;11.590;2023-01-20T02:07:10;3.92;;;3.66;;
14890;SDS011;7537;48.014;11.590;2023-01-20T02:12:40;3.94;;;3.48;;
14890;SDS011;7537;48.014;11.590;2023-01-20T02:18:11;3.55;;;3.22;;
14890;SDS011;7537;48.014;11.590;2023-01-20T02:23:56;3.96;;;3.76;;
14890;SDS011;7537;48.014;11.590;2023-01-20T02:29:38;3.14;;;3.08;;
14890;SDS011;7537;48.014;11.590;2023-01-20T02:35:13;3.61;;;3.48;;
14890;SDS011;7537;48.014;11.590;2023-01-20T02:40:47;4.03;;;3.33;;
14890;SDS011;7537;48.014;11.590;2023-01-20T02:46:17;3.99;;;3.96;;
14890;SDS011;7537;48.014;11.590;2023-01-20T02:51:49;2.65;;;2.82;;
14890;SDS011;7537;48.014;11.590;2023-01-20T02:57:18;5.18;;;3.64;;
14890;SDS011;7537;48.014;11.590;2023-01-20T03:02:54;3.87;;;3.44;;
14890;SDS011;7537;48.014;11.590;2023-01-20T03:08:23;3.94;;;3.75;;
14890;SDS011;7537;48.014;11.590;2023-01-20T03:13:54;3.72;;;3.39;;
14890;SDS011;7537;48.014;11.590;2023-01-20T03:19:24;4.16;;;3.43;;
14890;SDS011;7537;48.014;11.590;2023-01-20T03:24:52;3.48;;;2.94;;
14890;SDS011;7537;48.014;11.590;2023-01-20T03:30:20;6.55;;;3.96;;
14890;SDS011;7537;48.014;11.590;2023-01-20T03:35:51;6.79;;;4.09;;
14890;SDS011;7537;48.014;11.590;2023-01-20T03:41:22;4.10;;;3.16;;
14890;SDS011;7537;48.014;11.590;2023-01-20T03:46:54;3.16;;;2.54;;
14890;SDS011;7537;48.014;11.590;2023-01-20T03:52:26;3.34;;;3.26;;
14890;SDS011;7537;48.014;11.590;2023-01-20T03:57:59;4.26;;;3.87;;
14890;SDS011;7537;48.014;11.590;2023-01-20T04:03:28;4.79;;;3.66;;
14890;SDS011;7537;48.014;11.590;2023-01-20T04:08:57;3.04;;;3.07;;
14890;SDS011;7537;48.014;11.590;2023-01-20T04:14:25;3.60;;;3.70;;
14890;SDS011;7537;48.014;11.590;2023-01-20T04:19:53;4.71;;;3.44;;
14890;SDS011;7537;48.014;11.590;2023-01-20T04:25:21;4.74;;;3.76;;
14890;SDS011;7537;48.014;11.590;2023-01-20T04:30:50;4.76;;;4.18;;
14890;SDS011;7537;48.014;11.590;2023-01-20T04:36:20;4.31;;;3.58;;
14890;SDS011;7537;48.014;11.590;2023-01-20T04:41:48;3.59;;;3.56;;
14890;SDS011;7537;48.014;11.590;2023-01-20T04:47:15;4.04;;;4.02;;
14890;SDS011;7537;48.014;11.590;2023-01-20T04:52:42;6.24;;;3.79;;
14890;SDS011;7537;48.014;11.590;2023-01-20T04:58:10;4.42;;;3.49;;
14890;SDS011;7537;48.014;11.590;2023-01-20T05:03:37;3.92;;;3.38;;
14890;SDS011;7537;48.014;11.590;2023-01-20T05:09:05;4.15;;;3.41;;
14890;SDS011;7537;48.014;11.590;2023-01-20T05:14:35;2.44;;;2.56;;
14890;SDS011;7537;48.014;11.590;2023-01-20T05:20:03;3.14;;;3.14;;
14890;SDS011;7537;48.014;11.590;2023-01-20T05:25:30;8.89;;;3.49;;
14890;SDS011;7537;48.014;11.590;2023-01-20T05:30:58;3.62;;;3.14;;
14890;SDS011;7537;48.014;11.590;2023-01-20T05:36:30;8.93;;;3.89;;
14890;SDS011;7537;48.014;11.590;2023-01-20T05:41:59;4.99;;;3.62;;
14890;SDS011;7537;48.014;11.590;2023-01-20T05:47:26;5.79;;;3.73;;
14890;SDS011;7537;48.014;11.590;2023-01-20T05:52:54;5.67;;;3.92;;
14890;SDS011;7537;48.014;11.590;2023-01-20T05:58:21;10.39;;;4.11;;
14890;SDS011;7537;48.014;11.590;2023-01-20T06:03:59;5.35;;;4.08;;
14890;SDS011;7537;48.014;11.590;2023-01-20T06:09:27;4.01;;;3.87;;
14890;SDS011;7537;48.014;11.590;2023-01-20T06:14:54;4.52;;;4.16;;
14890;SDS011;7537;48.014;11.590;2023-01-20T06:20:21;3.72;;;3.71;;
14890;SDS011;7537;48.014;11.590;2023-01-20T06:25:53;11.09;;;4.26;;
14890;SDS011;7537;48.014;11.590;2023-01-20T06:31:23;5.67;;;4.54;;
14890;SDS011;7537;48.014;11.590;2023-01-20T06:36:54;4.11;;;4.16;;
14890;SDS011;7537;48.014;11.590;2023-01-20T06:42:21;4.96;;;4.46;;
14890;SDS011;7537;48.014;11.590;2023-01-20T06:47:49;4.62;;;4.51;;
14890;SDS011;7537;48.014;11.590;2023-01-20T06:53:16;4.12;;;4.06;;
14890;SDS011;7537;48.014;11.590;2023-01-20T06:58:44;5.24;;;3.89;;
14890;SDS011;7537;48.014;11.590;2023-01-20T07:04:12;4.97;;;4.19;;
14890;SDS011;7537;48.014;11.590;2023-01-20T07:09:39;7.20;;;4.54;;
14890;SDS011;7537;48.014;11.590;2023-01-20T07:15:08;5.34;;;4.52;;
14890;SDS011;7537;48.014;11.590;2023-01-20T07:20:35;4.69;;;3.90;;
14890;SDS011;7537;48.014;11.590;2023-01-20T07:26:03;4.06;;;4.03;;
14890;SDS011;7537;48.014;11.590;2023-01-20T07:31:34;7.60;;;5.11;;
14890;SDS011;7537;48.014;11.590;2023-01-20T07:37:06;4.84;;;4.39;;
14890;SDS011;7537;48.014;11.590;2023-01-20T07:42:33;5.79;;;4.53;;
14890;SDS011;7537;48.014;11.590;2023-01-20T07:48:03;4.30;;;4.32;;
14890;SDS011;7537;48.014;11.590;2023-01-20T07:53:30;7.12;;;4.76;;
14890;SDS011;7537;48.014;11.590;2023-01-20T07:58:58;4.61;;;4.30;;
14890;SDS011;7537;48.014;11.590;2023-01-20T08:04:26;5.97;;;5.40;;
14890;SDS011;7537;48.014;11.590;2023-01-20T08:09:53;6.71;;;6.71;;
14890;SDS011;7537;48.014;11.590;2023-01-20T08:15:21;9.46;;;6.05;;
14890;SDS011;7537;48.014;11.590;2023-01-20T08:20:48;6.73;;;5.81;;
14890;SDS011;7537;48.014;11.590;2023-01-20T08:26:16;7.76;;;5.66;;
14890;SDS011;7537;48.014;11.590;2023-01-20T08:31:43;5.64;;;5.75;;
14890;SDS011;7537;48.014;11.590;2023-01-20T08:37:14;9.96;;;6.32;;
14890;SDS011;7537;48.014;11.590;2023-01-20T08:42:41;8.99;;;6.59;;
14890;SDS011;7537;48.014;11.590;2023-01-20T08:48:09;7.58;;;6.59;;
14890;SDS011;7537;48.014;11.590;2023-01-20T08:53:36;7.89;;;5.54;;
14890;SDS011;7537;48.014;11.590;2023-01-20T08:59:03;9.18;;;6.39;;
14890;SDS011;7537;48.014;11.590;2023-01-20T09:04:31;8.54;;;6.46;;
14890;SDS011;7537;48.014;11.590;2023-01-20T09:10:04;7.27;;;6.07;;
14890;SDS011;7537;48.014;11.590;2023-01-20T09:15:35;8.01;;;7.10;;
14890;SDS011;7537;48.014;11.590;2023-01-20T09:21:03;9.06;;;5.77;;
14890;SDS011;7537;48.014;11.590;2023-01-20T09:26:31;6.66;;;5.48;;
14890;SDS011;7537;48.014;11.590;2023-01-20T09:31:58;6.18;;;5.48;;
14890;SDS011;7537;48.014;11.590;2023-01-20T09:37:29;5.50;;;4.80;;
14890;SDS011;7537;48.014;11.590;2023-01-20T09:43:02;8.42;;;6.08;;
14890;SDS011;7537;48.014;11.590;2023-01-20T09:48:34;6.17;;;5.35;;
14890;SDS011;7537;48.014;11.590;2023-01-20T09:54:04;6.59;;;5.93;;
14890;SDS011;7537;48.014;11.590;2023-01-20T09:59:34;8.56;;;6.88;;
14890;SDS011;7537;48.014;11.590;2023-01-20T10:05:06;6.20;;;6.17;;
14890;SDS011;7537;48.014;11.590;2023-01-20T10:10:39;7.14;;;6.71;;
14890;SDS011;7537;48.014;11.590;2023-01-20T10:16:08;9.34;;;6.95;;
14890;SDS011;7537;48.014;11.590;2023-01-20T10:21:36;12.27;;;7.69;;
14890;SDS011;7537;48.014;11.590;2023-01-20T10:27:06;11.69;;;7.13;;
14890;SDS011;7537;48.014;11.590;2023-01-20T10:32:35;5.45;;;4.89;;
14890;SDS011;7537;48.014;11.590;2023-01-20T10:38:07;10.56;;;6.80;;
14890;SDS011;7537;48.014;11.590;2023-01-20T10:43:35;6.79;;;6.10;;
14890;SDS011;7537;48.014;11.590;2023-01-20T10:49:09;9.43;;;7.41;;
14890;SDS011;7537;48.014;11.590;2023-01-20T10:54:44;7.12;;;6.63;;
14890;SDS011;7537;48.014;11.590;2023-01-20T11:00:15;6.18;;;5.54;;
14890;SDS011;7537;48.014;11.590;2023-01-20T11:05:46;6.67;;;4.39;;
14890;SDS011;7537;48.014;11.590;2023-01-20T11:11:15;4.96;;;5.01;;
14890;SDS011;7537;48.014;11.590;2023-01-20T11:16:43;6.00;;;4.54;;
14890;SDS011;7537;48.014;11.590;2023-01-20T11:22:11;5.43;;;4.96;;
14890;SDS011;7537;48.014;11.590;2023-01-20T11:27:40;5.26;;;5.45;;
14890;SDS011;7537;48.014;11.590;2023-01-20T11:33:15;4.69;;;4.72;;
14890;SDS011;7537;48.014;11.590;2023-01-20T11:38:48;3.68;;;3.73;;
14890;SDS011;7537;48.014;11.590;2023-01-20T11:44:17;3.98;;;4.06;;
14890;SDS011;7537;48.014;11.590;2023-01-20T11:49:45;2.19;;;2.36;;
14890;SDS011;7537;48.014;11.590;2023-01-20T11:55:16;3.32;;;3.41;;
14890;SDS011;7537;48.014;11.590;2023-01-20T12:00:48;4.10;;;3.71;;
14890;SDS011;7537;48.014;11.590;2023-01-20T12:06:18;2.81;;;2.78;;
14890;SDS011;7537;48.014;11.590;2023-01-20T12:11:51;3.30;;;3.42;;
14890;SDS011;7537;48.014;11.590;2023-01-20T12:17:20;3.88;;;3.46;;
14890;SDS011;7537;48.014;11.590;2023-01-20T12:22:53;4.99;;;3.94;;
14890;SDS011;7537;48.014;11.590;2023-01-20T12:28:23;3.33;;;3.26;;
14890;SDS011;7537;48.014;11.590;2023-01-20T12:33:54;3.65;;;3.30;;
14890;SDS011;7537;48.014;11.590;2023-01-20T12:39:35;3.13;;;3.28;;
14890;SDS011;7537;48.014;11.590;2023-01-20T12:45:08;2.67;;;2.81;;
14890;SDS011;7537;48.014;11.590;2023-01-20T12:50:41;8.83;;;3.42;;
14890;SDS011;7537;48.014;11.590;2023-01-20T12:56:11;5.29;;;4.12;;
14890;SDS011;7537;48.014;11.590;2023-01-20T13:01:49;3.97;;;3.89;;
14890;SDS011;7537;48.014;11.590;2023-01-20T13:07:25;4.20;;;4.03;;
14890;SDS011;7537;48.014;11.590;2023-01-20T13:12:56;5.06;;;4.52;;
14890;SDS011;7537;48.014;11.590;2023-01-20T13:18:25;5.30;;;5.28;;
14890;SDS011;7537;48.014;11.590;2023-01-20T13:23:54;5.43;;;5.07;;
14890;SDS011;7537;48.014;11.590;2023-01-20T13:29:22;4.91;;;4.30;;
14890;SDS011;7537;48.014;11.590;2023-01-20T13:34:49;6.74;;;5.97;;
14890;SDS011;7537;48.014;11.590;2023-01-20T13:51:50;7.32;;;6.66;;
14890;SDS011;7537;48.014;11.590;2023-01-20T14:03:19;9.10;;;8.28;;
14890;SDS011;7537;48.014;11.590;2023-01-20T14:08:47;10.07;;;9.07;;
14890;SDS011;7537;48.014;11.590;2023-01-20T14:14:17;11.27;;;9.34;;
14890;SDS011;7537;48.014;11.590;2023-01-20T14:19:46;12.28;;;9.82;;
14890;SDS011;7537;48.014;11.590;2023-01-20T14:25:19;12.22;;;9.94;;
14890;SDS011;7537;48.014;11.590;2023-01-20T14:30:47;11.22;;;9.82;;
14890;SDS011;7537;48.014;11.590;2023-01-20T14:36:15;10.71;;;8.88;;
14890;SDS011;7537;48.014;11.590;2023-01-20T14:41:47;7.90;;;7.81;;
14890;SDS011;7537;48.014;11.590;2023-01-20T14:47:15;14.93;;;9.00;;
14890;SDS011;7537;48.014;11.590;2023-01-20T14:52:43;10.81;;;9.71;;
14890;SDS011;7537;48.014;11.590;2023-01-20T14:58:13;11.13;;;10.08;;
14890;SDS011;7537;48.014;11.590;2023-01-20T15:03:41;11.78;;;10.29;;
14890;SDS011;7537;48.014;11.590;2023-01-20T15:09:23;9.63;;;8.54;;
14890;SDS011;7537;48.014;11.590;2023-01-20T15:14:59;11.18;;;8.72;;
14890;SDS011;7537;48.014;11.590;2023-01-20T15:20:32;10.30;;;9.17;;
14890;SDS011;7537;48.014;11.590;2023-01-20T15:26:06;13.93;;;9.73;;
14890;SDS011;7537;48.014;11.590;2023-01-20T15:31:34;15.03;;;11.95;;
14890;SDS011;7537;48.014;11.590;2023-01-20T15:37:01;13.81;;;10.56;;
14890;SDS011;7537;48.014;11.590;2023-01-20T15:42:39;13.11;;;11.59;;
14890;SDS011;7537;48.014;11.590;2023-01-20T15:48:08;13.99;;;10.79;;
14890;SDS011;7537;48.014;11.590;2023-01-20T15:53:37;17.21;;;11.84;;
14890;SDS011;7537;48.014;11.590;2023-01-20T15:59:09;14.91;;;11.84;;
14890;SDS011;7537;48.014;11.590;2023-01-20T16:04:38;17.28;;;12.00;;
14890;SDS011;7537;48.014;11.590;2023-01-20T16:10:08;13.95;;;11.31;;
14890;SDS011;7537;48.014;11.590;2023-01-20T16:15:36;16.44;;;12.48;;
14890;SDS011;7537;48.014;11.590;2023-01-20T16:21:04;17.40;;;14.04;;
14890;SDS011;7537;48.014;11.590;2023-01-20T16:26:32;15.31;;;11.99;;
14890;SDS011;7537;48.014;11.590;2023-01-20T16:31:59;17.26;;;14.35;;
14890;SDS011;7537;48.014;11.590;2023-01-20T16:37:27;20.54;;;16.02;;
14890;SDS011;7537;48.014;11.590;2023-01-20T16:42:58;21.15;;;15.95;;
14890;SDS011;7537;48.014;11.590;2023-01-20T16:48:28;20.51;;;16.34;;
14890;SDS011;7537;48.014;11.590;2023-01-20T16:53:56;22.54;;;16.28;;
14890;SDS011;7537;48.014;11.590;2023-01-20T16:59:26;19.13;;;14.99;;
14890;SDS011;7537;48.014;11.590;2023-01-20T17:04:54;20.89;;;16.27;;
14890;SDS011;7537;48.014;11.590;2023-01-20T17:10:22;26.31;;;17.59;;
14890;SDS011;7537;48.014;11.590;2023-01-20T17:15:51;23.60;;;16.41;;
14890;SDS011;7537;48.014;11.590;2023-01-20T17:21:19;19.54;;;15.54;;
14890;SDS011;7537;48.014;11.590;2023-01-20T17:26:47;27.69;;;19.63;;
14890;SDS011;7537;48.014;11.590;2023-01-20T17:32:14;26.74;;;19.07;;
14890;SDS011;7537;48.014;11.590;2023-01-20T17:37:42;23.39;;;16.87;;
14890;SDS011;7537;48.014;11.590;2023-01-20T17:43:12;25.04;;;17.95;;
14890;SDS011;7537;48.014;11.590;2023-01-20T17:48:40;27.95;;;18.97;;
14890;SDS011;7537;48.014;11.590;2023-01-20T17:54:07;28.06;;;19.83;;
14890;SDS011;7537;48.014;11.590;2023-01-20T17:59:35;21.32;;;16.95;;
14890;SDS011;7537;48.014;11.590;2023-01-20T18:05:02;24.06;;;17.86;;
14890;SDS011;7537;48.014;11.590;2023-01-20T18:10:30;23.23;;;18.09;;
14890;SDS011;7537;48.014;11.590;2023-01-20T18:16:01;25.32;;;17.14;;
14890;SDS011;7537;48.014;11.590;2023-01-20T18:21:29;24.27;;;18.38;;
14890;SDS011;7537;48.014;11.590;2023-01-20T18:26:57;21.87;;;16.79;;
14890;SDS011;7537;48.014;11.590;2023-01-20T18:32:24;24.12;;;16.92;;
14890;SDS011;7537;48.014;11.590;2023-01-20T18:37:52;23.60;;;18.48;;
14890;SDS011;7537;48.014;11.590;2023-01-20T18:43:22;24.33;;;18.56;;
14890;SDS011;7537;48.014;11.590;2023-01-20T18:48:50;25.39;;;19.73;;
14890;SDS011;7537;48.014;11.590;2023-01-20T18:54:17;31.54;;;21.84;;
14890;SDS011;7537;48.014;11.590;2023-01-20T18:59:45;28.13;;;19.78;;
14890;SDS011;7537;48.014;11.590;2023-01-20T19:05:12;30.02;;;20.94;;
14890;SDS011;7537;48.014;11.590;2023-01-20T19:10:40;35.06;;;22.67;;
14890;SDS011;7537;48.014;11.590;2023-01-20T19:16:08;27.89;;;21.70;;
14890;SDS011;7537;48.014;11.590;2023-01-20T19:21:37;27.23;;;20.09;;
14890;SDS011;7537;48.014;11.590;2023-01-20T19:27:04;27.70;;;16.84;;
14890;SDS011;7537;48.014;11.590;2023-01-20T19:32:32;25.16;;;16.52;;
14890;SDS011;7537;48.014;11.590;2023-01-20T19:37:59;23.83;;;16.61;;
14890;SDS011;7537;48.014;11.590;2023-01-20T19:43:30;23.62;;;15.14;;
14890;SDS011;7537;48.014;11.590;2023-01-20T19:48:57;24.63;;;17.26;;
14890;SDS011;7537;48.014;11.590;2023-01-20T19:54:25;23.81;;;16.22;;
14890;SDS011;7537;48.014;11.590;2023-01-20T19:59:53;24.59;;;14.83;;
14890;SDS011;7537;48.014;11.590;2023-01-20T20:05:20;22.51;;;16.93;;
14890;SDS011;7537;48.014;11.590;2023-01-20T20:10:48;22.94;;;15.79;;
14890;SDS011;7537;48.014;11.590;2023-01-20T20:16:15;20.48;;;15.07;;
14890;SDS011;7537;48.014;11.590;2023-01-20T20:21:43;21.95;;;15.97;;
14890;SDS011;7537;48.014;11.590;2023-01-20T20:27:11;25.38;;;16.01;;
14890;SDS011;7537;48.014;11.590;2023-01-20T20:32:38;22.23;;;17.46;;
14890;SDS011;7537;48.014;11.590;2023-01-20T20:38:05;22.83;;;16.16;;
14890;SDS011;7537;48.014;11.590;2023-01-20T20:43:36;23.21;;;16.70;;
14890;SDS011;7537;48.014;11.590;2023-01-20T20:49:04;21.72;;;16.48;;
14890;SDS011;7537;48.014;11.590;2023-01-20T20:54:31;24.46;;;18.26;;
14890;SDS011;7537;48.014;11.590;2023-01-20T20:59:58;24.21;;;17.06;;
14890;SDS011;7537;48.014;11.590;2023-01-20T21:05:26;22.51;;;15.38;;
14890;SDS011;7537;48.014;11.590;2023-01-20T21:10:53;24.16;;;16.41;;
14890;SDS011;7537;48.014;11.590;2023-01-20T21:16:24;20.13;;;15.81;;
14890;SDS011;7537;48.014;11.590;2023-01-20T21:21:52;22.20;;;15.04;;
14890;SDS011;7537;48.014;11.590;2023-01-20T21:27:19;24.41;;;16.55;;
14890;SDS011;7537;48.014;11.590;2023-01-20T21:32:47;28.99;;;16.30;;
14890;SDS011;7537;48.014;11.590;2023-01-20T21:38:14;18.96;;;14.41;;
14890;SDS011;7537;48.014;11.590;2023-01-20T21:43:45;22.12;;;16.67;;
14890;SDS011;7537;48.014;11.590;2023-01-20T21:49:13;21.16;;;15.15;;
14890;SDS011;7537;48.014;11.590;2023-01-20T21:54:40;20.97;;;15.25;;
14890;SDS011;7537;48.014;11.590;2023-01-20T22:00:09;21.82;;;15.39;;
14890;SDS011;7537;48.014;11.590;2023-01-20T22:05:37;21.93;;;16.42;;
14890;SDS011;7537;48.014;11.590;2023-01-20T22:11:05;21.93;;;14.45;;
14890;SDS011;7537;48.014;11.590;2023-01-20T22:16:32;22.87;;;15.39;;
14890;SDS011;7537;48.014;11.590;2023-01-20T22:22:00;17.61;;;14.39;;
14890;SDS011;7537;48.014;11.590;2023-01-20T22:27:27;23.08;;;15.34;;
14890;SDS011;7537;48.014;11.590;2023-01-20T22:32:55;22.92;;;15.31;;
14890;SDS011;7537;48.014;11.590;2023-01-20T22:38:23;20.14;;;14.37;;
14890;SDS011;7537;48.014;11.590;2023-01-20T22:43:53;19.01;;;14.16;;
14890;SDS011;7537;48.014;11.590;2023-01-20T22:49:21;17.47;;;14.07;;
14890;SDS011;7537;48.014;11.590;2023-01-20T22:54:48;20.04;;;14.46;;
14890;SDS011;7537;48.014;11.590;2023-01-20T23:05:49;23.79;;;14.97;;
14890;SDS011;7537;48.014;11.590;2023-01-20T23:11:17;22.51;;;14.41;;
14890;SDS011;7537;48.014;11.590;2023-01-20T23:16:46;17.57;;;12.84;;
14890;SDS011;7537;48.014;11.590;2023-01-20T23:22:13;19.55;;;14.81;;
14890;SDS011;7537;48.014;11.590;2023-01-20T23:27:41;19.53;;;14.92;;
14890;SDS011;7537;48.014;11.590;2023-01-20T23:33:08;21.27;;;14.32;;
14890;SDS011;7537;48.014;11.590;2023-01-20T23:38:36;19.84;;;14.91;;
14890;SDS011;7537;48.014;11.590;2023-01-20T23:44:12;19.02;;;14.23;;
14890;SDS011;7537;48.014;11.590;2023-01-20T23:49:40;20.41;;;14.18;;
14890;SDS011;7537;48.014;11.590;2023-01-20T23:55:08;18.96;;;14.08;;
